KEWK

Newton-City-County Airport

Newton, Kansas, USA
METAR KEWK 180156Z AUTO 00000KT 10SM CLR 24/19 A3010 RMK AO2 SLP178 T02440194
Observed Flight Rules
Aug-18 @ 01:56 UTC (33 minutes ago) Visual Flight Rules
Visibility Clouds
10 miles
  • Clear skies
Temperatures Readings
Current 24°C / 75°F
Dewpoint 19°C / 66°F
Humidity 74%
Altimeter 30.1" Hg
Pressure 1017.8 hPa
Elevation 467
METAR KEWK 180156Z AUTO 00000KT 10SM CLR 24/19 A3010 RMK AO2 SLP178 T02440194
Observed Flight Rules
Aug-18 @ 01:56 UTC
(33 minutes ago)
VFR
Clouds
  • Clear skies
Temperature Dewpoint
24°C / 75°F 19°C / 66°F
Humidity Altimeter Pressure
74% 30.1" Hg 1017.8 hPa